sensor_id;sensor_type;location;lat;lon;timestamp;temperature;humidity
39695;DHT22;25367;-35.352;149.036;2023-11-22T00:00:54;24.10;50.50
39695;DHT22;25367;-35.352;149.036;2023-11-22T00:03:23;24.10;50.50
39695;DHT22;25367;-35.352;149.036;2023-11-22T00:05:53;24.10;50.50
39695;DHT22;25367;-35.352;149.036;2023-11-22T00:08:22;24.20;50.50
39695;DHT22;25367;-35.352;149.036;2023-11-22T00:10:52;24.20;50.40
39695;DHT22;25367;-35.352;149.036;2023-11-22T00:13:23;24.20;50.40
39695;DHT22;25367;-35.352;149.036;2023-11-22T00:15:53;24.20;50.40
39695;DHT22;25367;-35.352;149.036;2023-11-22T00:18:22;24.30;50.40
39695;DHT22;25367;-35.352;149.036;2023-11-22T00:20:52;24.30;50.40
39695;DHT22;25367;-35.352;149.036;2023-11-22T00:23:21;24.30;50.40
39695;DHT22;25367;-35.352;149.036;2023-11-22T00:25:51;24.30;50.90
39695;DHT22;25367;-35.352;149.036;2023-11-22T00:28:20;24.40;50.40
39695;DHT22;25367;-35.352;149.036;2023-11-22T00:30:53;24.40;50.40
39695;DHT22;25367;-35.352;149.036;2023-11-22T00:33:22;24.40;50.40
39695;DHT22;25367;-35.352;149.036;2023-11-22T00:35:53;24.40;50.50
39695;DHT22;25367;-35.352;149.036;2023-11-22T00:38:22;24.40;50.50
39695;DHT22;25367;-35.352;149.036;2023-11-22T00:40:52;24.40;50.50
39695;DHT22;25367;-35.352;149.036;2023-11-22T00:43:21;24.50;50.60
39695;DHT22;25367;-35.352;149.036;2023-11-22T00:45:54;24.50;50.60
39695;DHT22;25367;-35.352;149.036;2023-11-22T00:48:24;24.50;50.80
39695;DHT22;25367;-35.352;149.036;2023-11-22T00:50:53;24.60;50.70
39695;DHT22;25367;-35.352;149.036;2023-11-22T00:53:22;24.60;50.90
39695;DHT22;25367;-35.352;149.036;2023-11-22T00:55:52;24.60;50.60
39695;DHT22;25367;-35.352;149.036;2023-11-22T00:58:21;24.60;50.60
39695;DHT22;25367;-35.352;149.036;2023-11-22T01:00:53;24.60;50.60
39695;DHT22;25367;-35.352;149.036;2023-11-22T01:03:22;24.70;50.70
39695;DHT22;25367;-35.352;149.036;2023-11-22T01:05:52;24.70;50.60
39695;DHT22;25367;-35.352;149.036;2023-11-22T01:08:21;24.70;50.60
39695;DHT22;25367;-35.352;149.036;2023-11-22T01:10:51;24.70;51.10
39695;DHT22;25367;-35.352;149.036;2023-11-22T01:13:20;24.70;50.40
39695;DHT22;25367;-35.352;149.036;2023-11-22T01:15:53;24.80;50.60
39695;DHT22;25367;-35.352;149.036;2023-11-22T01:18:22;24.80;50.80
39695;DHT22;25367;-35.352;149.036;2023-11-22T01:20:52;24.80;50.50
39695;DHT22;25367;-35.352;149.036;2023-11-22T01:23:21;24.90;50.70
39695;DHT22;25367;-35.352;149.036;2023-11-22T01:25:51;24.90;50.70
39695;DHT22;25367;-35.352;149.036;2023-11-22T01:28:21;24.90;50.60
39695;DHT22;25367;-35.352;149.036;2023-11-22T01:30:54;24.90;50.60
39695;DHT22;25367;-35.352;149.036;2023-11-22T01:33:23;25.00;50.60
39695;DHT22;25367;-35.352;149.036;2023-11-22T01:35:53;24.90;51.10
39695;DHT22;25367;-35.352;149.036;2023-11-22T01:38:22;25.00;50.50
39695;DHT22;25367;-35.352;149.036;2023-11-22T01:40:52;25.00;50.40
39695;DHT22;25367;-35.352;149.036;2023-11-22T01:43:23;25.00;50.30
39695;DHT22;25367;-35.352;149.036;2023-11-22T01:46:01;25.00;50.30
39695;DHT22;25367;-35.352;149.036;2023-11-22T01:48:32;25.00;50.30
39695;DHT22;25367;-35.352;149.036;2023-11-22T01:51:02;25.00;50.30
39695;DHT22;25367;-35.352;149.036;2023-11-22T01:53:32;25.10;50.40
39695;DHT22;25367;-35.352;149.036;2023-11-22T01:56:02;25.10;50.30
39695;DHT22;25367;-35.352;149.036;2023-11-22T01:58:31;25.10;50.30
39695;DHT22;25367;-35.352;149.036;2023-11-22T02:01:05;25.10;50.20
39695;DHT22;25367;-35.352;149.036;2023-11-22T02:03:35;25.20;50.20
39695;DHT22;25367;-35.352;149.036;2023-11-22T02:06:04;25.10;50.10
39695;DHT22;25367;-35.352;149.036;2023-11-22T02:08:34;25.10;50.10
39695;DHT22;25367;-35.352;149.036;2023-11-22T02:11:04;25.20;50.10
39695;DHT22;25367;-35.352;149.036;2023-11-22T02:13:33;25.20;50.00
39695;DHT22;25367;-35.352;149.036;2023-11-22T02:16:06;25.20;50.00
39695;DHT22;25367;-35.352;149.036;2023-11-22T02:18:36;25.30;50.10
39695;DHT22;25367;-35.352;149.036;2023-11-22T02:21:07;25.30;50.10
39695;DHT22;25367;-35.352;149.036;2023-11-22T02:23:40;25.30;50.10
39695;DHT22;25367;-35.352;149.036;2023-11-22T02:26:09;25.40;50.20
39695;DHT22;25367;-35.352;149.036;2023-11-22T02:28:39;25.30;50.10
39695;DHT22;25367;-35.352;149.036;2023-11-22T02:31:08;25.30;50.20
39695;DHT22;25367;-35.352;149.036;2023-11-22T02:33:38;25.40;50.20
39695;DHT22;25367;-35.352;149.036;2023-11-22T02:36:07;25.40;50.20
39695;DHT22;25367;-35.352;149.036;2023-11-22T02:38:39;25.40;50.20
39695;DHT22;25367;-35.352;149.036;2023-11-22T02:41:08;25.40;50.20
39695;DHT22;25367;-35.352;149.036;2023-11-22T02:43:38;25.40;50.20
39695;DHT22;25367;-35.352;149.036;2023-11-22T02:46:08;25.40;50.20
39695;DHT22;25367;-35.352;149.036;2023-11-22T02:48:38;25.40;50.30
39695;DHT22;25367;-35.352;149.036;2023-11-22T02:51:07;25.40;50.10
39695;DHT22;25367;-35.352;149.036;2023-11-22T02:53:39;25.40;50.10
39695;DHT22;25367;-35.352;149.036;2023-11-22T02:56:08;25.50;50.10
39695;DHT22;25367;-35.352;149.036;2023-11-22T02:58:38;25.50;50.10
39695;DHT22;25367;-35.352;149.036;2023-11-22T03:01:08;25.50;50.00
39695;DHT22;25367;-35.352;149.036;2023-11-22T03:03:37;25.50;50.00
39695;DHT22;25367;-35.352;149.036;2023-11-22T03:06:07;25.50;50.00
39695;DHT22;25367;-35.352;149.036;2023-11-22T03:08:38;25.60;50.00
39695;DHT22;25367;-35.352;149.036;2023-11-22T03:11:08;25.60;50.00
39695;DHT22;25367;-35.352;149.036;2023-11-22T03:13:37;25.60;50.00
39695;DHT22;25367;-35.352;149.036;2023-11-22T03:16:07;25.70;50.00
39695;DHT22;25367;-35.352;149.036;2023-11-22T03:18:36;25.60;49.80
39695;DHT22;25367;-35.352;149.036;2023-11-22T03:21:06;25.60;49.90
39695;DHT22;25367;-35.352;149.036;2023-11-22T03:23:36;25.70;49.90
39695;DHT22;25367;-35.352;149.036;2023-11-22T03:26:08;25.60;49.80
39695;DHT22;25367;-35.352;149.036;2023-11-22T03:28:37;25.70;49.80
39695;DHT22;25367;-35.352;149.036;2023-11-22T03:31:08;25.70;49.80
39695;DHT22;25367;-35.352;149.036;2023-11-22T03:33:38;25.70;49.80
39695;DHT22;25367;-35.352;149.036;2023-11-22T03:36:08;25.70;49.80
39695;DHT22;25367;-35.352;149.036;2023-11-22T03:38:38;25.80;49.90
39695;DHT22;25367;-35.352;149.036;2023-11-22T03:41:09;25.80;49.80
39695;DHT22;25367;-35.352;149.036;2023-11-22T03:43:39;25.80;49.80
39695;DHT22;25367;-35.352;149.036;2023-11-22T03:46:08;25.80;49.90
39695;DHT22;25367;-35.352;149.036;2023-11-22T03:48:38;25.80;49.70
39695;DHT22;25367;-35.352;149.036;2023-11-22T03:51:07;25.90;49.80
39695;DHT22;25367;-35.352;149.036;2023-11-22T03:53:37;25.80;49.60
39695;DHT22;25367;-35.352;149.036;2023-11-22T03:56:09;25.80;49.50
39695;DHT22;25367;-35.352;149.036;2023-11-22T03:58:39;25.90;49.60
39695;DHT22;25367;-35.352;149.036;2023-11-22T04:01:09;25.90;49.50
39695;DHT22;25367;-35.352;149.036;2023-11-22T04:03:38;25.90;49.50
39695;DHT22;25367;-35.352;149.036;2023-11-22T04:06:08;25.90;49.40
39695;DHT22;25367;-35.352;149.036;2023-11-22T04:08:38;25.90;49.50
39695;DHT22;25367;-35.352;149.036;2023-11-22T04:11:09;25.90;49.50
39695;DHT22;25367;-35.352;149.036;2023-11-22T04:13:39;25.90;49.50
39695;DHT22;25367;-35.352;149.036;2023-11-22T04:16:08;25.90;49.50
39695;DHT22;25367;-35.352;149.036;2023-11-22T04:18:39;25.90;49.60
39695;DHT22;25367;-35.352;149.036;2023-11-22T04:21:09;25.90;49.60
39695;DHT22;25367;-35.352;149.036;2023-11-22T04:23:39;25.90;49.60
39695;DHT22;25367;-35.352;149.036;2023-11-22T04:26:10;25.90;49.50
39695;DHT22;25367;-35.352;149.036;2023-11-22T04:28:39;26.00;49.60
39695;DHT22;25367;-35.352;149.036;2023-11-22T04:31:09;26.00;49.60
39695;DHT22;25367;-35.352;149.036;2023-11-22T04:33:38;26.00;49.50
39695;DHT22;25367;-35.352;149.036;2023-11-22T04:36:08;26.00;49.50
39695;DHT22;25367;-35.352;149.036;2023-11-22T04:38:37;26.00;49.50
39695;DHT22;25367;-35.352;149.036;2023-11-22T04:41:09;26.10;49.50
39695;DHT22;25367;-35.352;149.036;2023-11-22T04:43:38;26.00;49.40
39695;DHT22;25367;-35.352;149.036;2023-11-22T04:46:07;26.10;49.50
39695;DHT22;25367;-35.352;149.036;2023-11-22T04:48:37;26.00;49.50
39695;DHT22;25367;-35.352;149.036;2023-11-22T04:51:07;26.10;49.50
39695;DHT22;25367;-35.352;149.036;2023-11-22T04:53:36;26.10;49.30
39695;DHT22;25367;-35.352;149.036;2023-11-22T04:56:06;26.10;49.30
39695;DHT22;25367;-35.352;149.036;2023-11-22T04:58:38;26.10;49.10
39695;DHT22;25367;-35.352;149.036;2023-11-22T05:01:07;26.10;49.10
39695;DHT22;25367;-35.352;149.036;2023-11-22T05:03:36;26.20;48.90
39695;DHT22;25367;-35.352;149.036;2023-11-22T05:06:07;26.30;49.00
39695;DHT22;25367;-35.352;149.036;2023-11-22T05:08:37;26.20;48.90
39695;DHT22;25367;-35.352;149.036;2023-11-22T05:11:07;26.30;49.00
39695;DHT22;25367;-35.352;149.036;2023-11-22T05:13:39;26.30;48.90
39695;DHT22;25367;-35.352;149.036;2023-11-22T05:16:08;26.30;48.90
39695;DHT22;25367;-35.352;149.036;2023-11-22T05:18:37;26.30;48.90
39695;DHT22;25367;-35.352;149.036;2023-11-22T05:21:06;26.30;49.00
39695;DHT22;25367;-35.352;149.036;2023-11-22T05:23:36;26.30;48.90
39695;DHT22;25367;-35.352;149.036;2023-11-22T05:26:05;26.40;48.90
39695;DHT22;25367;-35.352;149.036;2023-11-22T05:28:38;26.40;48.90
39695;DHT22;25367;-35.352;149.036;2023-11-22T05:31:07;26.40;48.80
39695;DHT22;25367;-35.352;149.036;2023-11-22T05:33:37;26.40;48.70
39695;DHT22;25367;-35.352;149.036;2023-11-22T05:36:07;26.40;48.60
39695;DHT22;25367;-35.352;149.036;2023-11-22T05:38:36;26.40;48.70
39695;DHT22;25367;-35.352;149.036;2023-11-22T05:41:05;26.50;48.60
39695;DHT22;25367;-35.352;149.036;2023-11-22T05:43:38;26.50;48.70
39695;DHT22;25367;-35.352;149.036;2023-11-22T05:46:08;26.50;48.60
39695;DHT22;25367;-35.352;149.036;2023-11-22T05:48:37;26.50;48.60
39695;DHT22;25367;-35.352;149.036;2023-11-22T05:51:07;26.50;48.50
39695;DHT22;25367;-35.352;149.036;2023-11-22T05:53:36;26.60;48.60
39695;DHT22;25367;-35.352;149.036;2023-11-22T05:56:06;26.60;48.60
39695;DHT22;25367;-35.352;149.036;2023-11-22T05:58:39;26.60;48.50
39695;DHT22;25367;-35.352;149.036;2023-11-22T06:01:08;26.60;48.50
39695;DHT22;25367;-35.352;149.036;2023-11-22T06:03:38;26.60;48.50
39695;DHT22;25367;-35.352;149.036;2023-11-22T06:06:08;26.60;48.50
39695;DHT22;25367;-35.352;149.036;2023-11-22T06:08:37;26.60;48.50
39695;DHT22;25367;-35.352;149.036;2023-11-22T06:11:07;26.60;48.40
39695;DHT22;25367;-35.352;149.036;2023-11-22T06:13:40;26.60;48.30
39695;DHT22;25367;-35.352;149.036;2023-11-22T06:16:09;26.70;49.00
39695;DHT22;25367;-35.352;149.036;2023-11-22T06:18:39;26.70;48.40
39695;DHT22;25367;-35.352;149.036;2023-11-22T06:21:08;26.70;48.30
39695;DHT22;25367;-35.352;149.036;2023-11-22T06:23:38;26.70;48.30
39695;DHT22;25367;-35.352;149.036;2023-11-22T06:26:08;26.60;48.20
39695;DHT22;25367;-35.352;149.036;2023-11-22T06:28:41;26.70;48.30
39695;DHT22;25367;-35.352;149.036;2023-11-22T06:31:10;26.70;48.20
39695;DHT22;25367;-35.352;149.036;2023-11-22T06:33:40;26.70;48.20
39695;DHT22;25367;-35.352;149.036;2023-11-22T06:36:10;26.70;48.10
39695;DHT22;25367;-35.352;149.036;2023-11-22T06:38:39;26.70;48.10
39695;DHT22;25367;-35.352;149.036;2023-11-22T06:41:08;26.70;48.10
39695;DHT22;25367;-35.352;149.036;2023-11-22T06:43:41;26.70;48.10
39695;DHT22;25367;-35.352;149.036;2023-11-22T06:46:10;26.70;48.10
39695;DHT22;25367;-35.352;149.036;2023-11-22T06:48:40;26.70;48.10
39695;DHT22;25367;-35.352;149.036;2023-11-22T06:51:09;26.70;48.10
39695;DHT22;25367;-35.352;149.036;2023-11-22T06:53:39;26.80;48.30
39695;DHT22;25367;-35.352;149.036;2023-11-22T06:56:09;26.70;48.10
39695;DHT22;25367;-35.352;149.036;2023-11-22T06:58:41;26.70;48.10
39695;DHT22;25367;-35.352;149.036;2023-11-22T07:01:11;26.80;48.00
39695;DHT22;25367;-35.352;149.036;2023-11-22T07:03:40;26.80;48.10
39695;DHT22;25367;-35.352;149.036;2023-11-22T07:06:10;26.80;48.00
39695;DHT22;25367;-35.352;149.036;2023-11-22T07:08:39;26.80;47.90
39695;DHT22;25367;-35.352;149.036;2023-11-22T07:11:09;26.80;47.90
39695;DHT22;25367;-35.352;149.036;2023-11-22T08:21:17;25.30;50.50
39695;DHT22;25367;-35.352;149.036;2023-11-22T08:23:47;25.40;52.00
39695;DHT22;25367;-35.352;149.036;2023-11-22T08:26:17;25.50;51.80
39695;DHT22;25367;-35.352;149.036;2023-11-22T08:28:46;25.60;51.60
39695;DHT22;25367;-35.352;149.036;2023-11-22T08:31:16;25.80;51.50
39695;DHT22;25367;-35.352;149.036;2023-11-22T08:33:45;25.90;51.40
39695;DHT22;25367;-35.352;149.036;2023-11-22T08:36:18;26.00;51.40
39695;DHT22;25367;-35.352;149.036;2023-11-22T08:38:46;26.00;51.20
39695;DHT22;25367;-35.352;149.036;2023-11-22T08:41:16;26.00;50.90
39695;DHT22;25367;-35.352;149.036;2023-11-22T08:43:45;26.00;51.40
39695;DHT22;25367;-35.352;149.036;2023-11-22T08:46:14;26.10;51.70
39695;DHT22;25367;-35.352;149.036;2023-11-22T08:48:44;26.20;51.60
39695;DHT22;25367;-35.352;149.036;2023-11-22T08:51:17;26.30;51.60
39695;DHT22;25367;-35.352;149.036;2023-11-22T08:53:46;26.30;51.30
39695;DHT22;25367;-35.352;149.036;2023-11-22T08:56:16;26.30;51.30
39695;DHT22;25367;-35.352;149.036;2023-11-22T08:58:45;26.40;51.30
39695;DHT22;25367;-35.352;149.036;2023-11-22T09:01:15;26.40;51.10
39695;DHT22;25367;-35.352;149.036;2023-11-22T09:03:44;26.40;51.00
39695;DHT22;25367;-35.352;149.036;2023-11-22T09:06:17;26.40;50.90
39695;DHT22;25367;-35.352;149.036;2023-11-22T09:08:46;26.40;50.90
39695;DHT22;25367;-35.352;149.036;2023-11-22T09:11:16;26.50;50.80
39695;DHT22;25367;-35.352;149.036;2023-11-22T09:13:46;26.50;50.70
39695;DHT22;25367;-35.352;149.036;2023-11-22T09:16:15;26.50;50.60
39695;DHT22;25367;-35.352;149.036;2023-11-22T09:18:44;26.40;50.60
39695;DHT22;25367;-35.352;149.036;2023-11-22T09:21:16;26.50;50.50
39695;DHT22;25367;-35.352;149.036;2023-11-22T09:23:46;26.50;50.50
39695;DHT22;25367;-35.352;149.036;2023-11-22T09:26:15;26.50;50.50
39695;DHT22;25367;-35.352;149.036;2023-11-22T09:28:45;26.50;50.40
39695;DHT22;25367;-35.352;149.036;2023-11-22T20:22:46;21.40;51.60
39695;DHT22;25367;-35.352;149.036;2023-11-22T20:25:16;21.40;53.20
39695;DHT22;25367;-35.352;149.036;2023-11-22T20:27:46;21.50;53.30
39695;DHT22;25367;-35.352;149.036;2023-11-22T20:30:15;21.70;53.80
39695;DHT22;25367;-35.352;149.036;2023-11-22T20:32:45;21.80;53.00
39695;DHT22;25367;-35.352;149.036;2023-11-22T20:35:14;22.00;52.90
39695;DHT22;25367;-35.352;149.036;2023-11-22T20:37:47;22.10;52.70
39695;DHT22;25367;-35.352;149.036;2023-11-22T20:40:16;22.10;52.50
39695;DHT22;25367;-35.352;149.036;2023-11-22T20:42:46;22.20;52.50
39695;DHT22;25367;-35.352;149.036;2023-11-22T20:45:15;22.30;52.40
39695;DHT22;25367;-35.352;149.036;2023-11-22T20:47:45;22.30;52.30
39695;DHT22;25367;-35.352;149.036;2023-11-22T20:50:14;22.40;52.30
39695;DHT22;25367;-35.352;149.036;2023-11-22T20:52:47;22.40;52.20
39695;DHT22;25367;-35.352;149.036;2023-11-22T20:55:17;22.40;52.20
39695;DHT22;25367;-35.352;149.036;2023-11-22T20:57:46;22.40;52.20
39695;DHT22;25367;-35.352;149.036;2023-11-22T21:00:16;22.50;52.40
39695;DHT22;25367;-35.352;149.036;2023-11-22T21:02:46;22.60;52.40
39695;DHT22;25367;-35.352;149.036;2023-11-22T21:05:15;22.60;52.50
39695;DHT22;25367;-35.352;149.036;2023-11-22T21:07:47;22.60;52.40
39695;DHT22;25367;-35.352;149.036;2023-11-22T21:10:17;22.70;52.40
39695;DHT22;25367;-35.352;149.036;2023-11-22T21:12:47;22.70;52.30
39695;DHT22;25367;-35.352;149.036;2023-11-22T21:15:16;22.70;52.30
39695;DHT22;25367;-35.352;149.036;2023-11-22T21:17:46;22.70;52.20
39695;DHT22;25367;-35.352;149.036;2023-11-22T21:20:15;22.70;52.10
39695;DHT22;25367;-35.352;149.036;2023-11-22T21:22:48;22.80;52.10
39695;DHT22;25367;-35.352;149.036;2023-11-22T21:25:18;22.90;52.00
39695;DHT22;25367;-35.352;149.036;2023-11-22T21:27:47;22.80;51.90
39695;DHT22;25367;-35.352;149.036;2023-11-22T21:30:17;22.90;52.00
39695;DHT22;25367;-35.352;149.036;2023-11-22T21:32:48;22.90;52.00
39695;DHT22;25367;-35.352;149.036;2023-11-22T21:35:18;23.00;52.00
39695;DHT22;25367;-35.352;149.036;2023-11-22T21:37:51;23.00;52.10
39695;DHT22;25367;-35.352;149.036;2023-11-22T21:40:21;23.00;52.00
39695;DHT22;25367;-35.352;149.036;2023-11-22T21:42:51;23.00;51.90
39695;DHT22;25367;-35.352;149.036;2023-11-22T21:45:20;23.00;51.90
39695;DHT22;25367;-35.352;149.036;2023-11-22T21:47:49;23.10;51.90
39695;DHT22;25367;-35.352;149.036;2023-11-22T21:50:19;23.10;52.00
39695;DHT22;25367;-35.352;149.036;2023-11-22T21:52:50;23.10;52.00
39695;DHT22;25367;-35.352;149.036;2023-11-22T21:55:19;23.20;52.00
39695;DHT22;25367;-35.352;149.036;2023-11-22T21:57:49;23.20;52.00
39695;DHT22;25367;-35.352;149.036;2023-11-22T22:00:18;23.20;51.90
39695;DHT22;25367;-35.352;149.036;2023-11-22T22:02:48;23.30;51.90
39695;DHT22;25367;-35.352;149.036;2023-11-22T22:05:17;23.30;51.90
39695;DHT22;25367;-35.352;149.036;2023-11-22T22:07:49;23.30;51.90
39695;DHT22;25367;-35.352;149.036;2023-11-22T22:10:19;23.30;52.10
39695;DHT22;25367;-35.352;149.036;2023-11-22T22:12:48;23.30;51.90
39695;DHT22;25367;-35.352;149.036;2023-11-22T22:15:18;23.30;51.90
39695;DHT22;25367;-35.352;149.036;2023-11-22T22:17:47;23.40;51.80
39695;DHT22;25367;-35.352;149.036;2023-11-22T22:20:17;23.50;51.90
39695;DHT22;25367;-35.352;149.036;2023-11-22T22:22:48;23.50;51.80
39695;DHT22;25367;-35.352;149.036;2023-11-22T22:25:18;23.50;51.80
39695;DHT22;25367;-35.352;149.036;2023-11-22T22:27:47;23.50;51.80
39695;DHT22;25367;-35.352;149.036;2023-11-22T22:30:17;23.60;51.80
39695;DHT22;25367;-35.352;149.036;2023-11-22T22:32:46;23.60;51.90
39695;DHT22;25367;-35.352;149.036;2023-11-22T22:35:15;23.60;51.80
39695;DHT22;25367;-35.352;149.036;2023-11-22T22:37:45;23.70;51.80
39695;DHT22;25367;-35.352;149.036;2023-11-22T22:40:16;23.70;51.80
39695;DHT22;25367;-35.352;149.036;2023-11-22T22:42:46;23.70;51.70
39695;DHT22;25367;-35.352;149.036;2023-11-22T22:45:15;23.80;51.70
39695;DHT22;25367;-35.352;149.036;2023-11-22T22:47:45;23.80;51.70
39695;DHT22;25367;-35.352;149.036;2023-11-22T22:50:14;23.80;51.60
39695;DHT22;25367;-35.352;149.036;2023-11-22T22:52:46;23.90;51.70
39695;DHT22;25367;-35.352;149.036;2023-11-22T22:55:19;23.90;51.60
39695;DHT22;25367;-35.352;149.036;2023-11-22T22:57:49;23.90;51.60
39695;DHT22;25367;-35.352;149.036;2023-11-22T23:00:19;24.00;51.60
39695;DHT22;25367;-35.352;149.036;2023-11-22T23:02:48;24.00;51.60
39695;DHT22;25367;-35.352;149.036;2023-11-22T23:05:19;24.00;51.50
39695;DHT22;25367;-35.352;149.036;2023-11-22T23:07:48;24.10;51.60
39695;DHT22;25367;-35.352;149.036;2023-11-22T23:10:20;24.10;51.50
39695;DHT22;25367;-35.352;149.036;2023-11-22T23:12:50;24.10;51.50
39695;DHT22;25367;-35.352;149.036;2023-11-22T23:15:20;24.20;51.50
39695;DHT22;25367;-35.352;149.036;2023-11-22T23:17:50;24.20;51.30
39695;DHT22;25367;-35.352;149.036;2023-11-22T23:20:19;24.20;51.30
39695;DHT22;25367;-35.352;149.036;2023-11-22T23:22:49;24.20;51.30
39695;DHT22;25367;-35.352;149.036;2023-11-22T23:25:20;24.30;51.30
39695;DHT22;25367;-35.352;149.036;2023-11-22T23:27:50;24.30;51.20
39695;DHT22;25367;-35.352;149.036;2023-11-22T23:30:19;24.30;51.20
39695;DHT22;25367;-35.352;149.036;2023-11-22T23:32:49;24.40;51.20
39695;DHT22;25367;-35.352;149.036;2023-11-22T23:35:19;24.40;51.20
39695;DHT22;25367;-35.352;149.036;2023-11-22T23:37:48;24.40;51.10
39695;DHT22;25367;-35.352;149.036;2023-11-22T23:40:20;24.40;51.10
39695;DHT22;25367;-35.352;149.036;2023-11-22T23:42:49;24.50;51.00
39695;DHT22;25367;-35.352;149.036;2023-11-22T23:45:19;24.50;51.00
39695;DHT22;25367;-35.352;149.036;2023-11-22T23:47:48;24.50;51.00
39695;DHT22;25367;-35.352;149.036;2023-11-22T23:50:18;24.50;50.90
39695;DHT22;25367;-35.352;149.036;2023-11-22T23:52:48;24.50;50.80
39695;DHT22;25367;-35.352;149.036;2023-11-22T23:55:19;24.60;50.80
39695;DHT22;25367;-35.352;149.036;2023-11-22T23:57:48;24.60;50.70
